sensor_id;sensor_type;location;lat;lon;timestamp;P1;durP1;ratioP1;P2;durP2;ratioP2
44766;SDS011;30487;48.716;9.272;2023-06-19T00:00:29;6.65;;;5.03;;
44766;SDS011;30487;48.716;9.272;2023-06-19T00:02:55;8.23;;;4.80;;
44766;SDS011;30487;48.716;9.272;2023-06-19T00:05:21;8.02;;;5.13;;
44766;SDS011;30487;48.716;9.272;2023-06-19T00:07:48;8.38;;;5.18;;
44766;SDS011;30487;48.716;9.272;2023-06-19T00:10:14;7.63;;;5.35;;
44766;SDS011;30487;48.716;9.272;2023-06-19T00:12:40;8.30;;;5.00;;
44766;SDS011;30487;48.716;9.272;2023-06-19T00:15:05;6.88;;;4.85;;
44766;SDS011;30487;48.716;9.272;2023-06-19T00:17:32;9.80;;;5.25;;
44766;SDS011;30487;48.716;9.272;2023-06-19T00:19:58;11.68;;;5.15;;
44766;SDS011;30487;48.716;9.272;2023-06-19T00:22:24;9.10;;;5.25;;
44766;SDS011;30487;48.716;9.272;2023-06-19T00:24:51;9.93;;;4.93;;
44766;SDS011;30487;48.716;9.272;2023-06-19T00:27:17;10.55;;;5.57;;
44766;SDS011;30487;48.716;9.272;2023-06-19T00:29:43;8.68;;;5.75;;
44766;SDS011;30487;48.716;9.272;2023-06-19T00:32:08;9.02;;;5.00;;
44766;SDS011;30487;48.716;9.272;2023-06-19T00:34:34;9.27;;;4.82;;
44766;SDS011;30487;48.716;9.272;2023-06-19T00:37:02;10.07;;;5.15;;
44766;SDS011;30487;48.716;9.272;2023-06-19T00:39:28;8.32;;;5.22;;
44766;SDS011;30487;48.716;9.272;2023-06-19T00:41:54;9.18;;;4.70;;
44766;SDS011;30487;48.716;9.272;2023-06-19T00:44:21;9.32;;;5.07;;
44766;SDS011;30487;48.716;9.272;2023-06-19T00:46:49;8.65;;;5.35;;
44766;SDS011;30487;48.716;9.272;2023-06-19T00:49:18;7.38;;;5.47;;
44766;SDS011;30487;48.716;9.272;2023-06-19T00:51:44;10.65;;;5.30;;
44766;SDS011;30487;48.716;9.272;2023-06-19T00:54:09;8.10;;;5.20;;
44766;SDS011;30487;48.716;9.272;2023-06-19T00:56:36;8.43;;;5.30;;
44766;SDS011;30487;48.716;9.272;2023-06-19T00:59:06;6.80;;;5.05;;
44766;SDS011;30487;48.716;9.272;2023-06-19T01:01:39;7.07;;;5.05;;
44766;SDS011;30487;48.716;9.272;2023-06-19T01:04:06;10.82;;;5.38;;
44766;SDS011;30487;48.716;9.272;2023-06-19T01:06:32;10.00;;;4.68;;
44766;SDS011;30487;48.716;9.272;2023-06-19T01:09:28;6.82;;;4.63;;
44766;SDS011;30487;48.716;9.272;2023-06-19T01:12:04;11.02;;;5.15;;
44766;SDS011;30487;48.716;9.272;2023-06-19T01:15:03;8.70;;;5.25;;
44766;SDS011;30487;48.716;9.272;2023-06-19T01:17:29;7.50;;;4.40;;
44766;SDS011;30487;48.716;9.272;2023-06-19T01:19:55;9.60;;;5.25;;
44766;SDS011;30487;48.716;9.272;2023-06-19T01:22:23;8.68;;;5.28;;
44766;SDS011;30487;48.716;9.272;2023-06-19T01:24:58;7.22;;;5.15;;
44766;SDS011;30487;48.716;9.272;2023-06-19T01:27:24;14.40;;;5.40;;
44766;SDS011;30487;48.716;9.272;2023-06-19T01:29:54;10.32;;;5.35;;
44766;SDS011;30487;48.716;9.272;2023-06-19T01:32:41;11.45;;;5.22;;
44766;SDS011;30487;48.716;9.272;2023-06-19T01:35:15;7.57;;;5.35;;
44766;SDS011;30487;48.716;9.272;2023-06-19T01:37:44;9.63;;;5.50;;
44766;SDS011;30487;48.716;9.272;2023-06-19T01:40:14;9.02;;;5.30;;
44766;SDS011;30487;48.716;9.272;2023-06-19T01:42:41;10.68;;;5.13;;
44766;SDS011;30487;48.716;9.272;2023-06-19T01:45:07;12.52;;;5.18;;
44766;SDS011;30487;48.716;9.272;2023-06-19T01:47:34;8.43;;;5.35;;
44766;SDS011;30487;48.716;9.272;2023-06-19T01:50:00;7.70;;;4.78;;
44766;SDS011;30487;48.716;9.272;2023-06-19T01:52:26;9.05;;;5.07;;
44766;SDS011;30487;48.716;9.272;2023-06-19T01:54:52;9.07;;;4.80;;
44766;SDS011;30487;48.716;9.272;2023-06-19T01:57:17;10.38;;;4.85;;
44766;SDS011;30487;48.716;9.272;2023-06-19T01:59:43;13.23;;;4.82;;
44766;SDS011;30487;48.716;9.272;2023-06-19T02:02:09;7.03;;;4.78;;
44766;SDS011;30487;48.716;9.272;2023-06-19T02:04:35;8.05;;;4.78;;
44766;SDS011;30487;48.716;9.272;2023-06-19T02:07:01;6.38;;;4.28;;
44766;SDS011;30487;48.716;9.272;2023-06-19T02:09:27;8.82;;;4.55;;
44766;SDS011;30487;48.716;9.272;2023-06-19T02:11:53;6.22;;;4.00;;
44766;SDS011;30487;48.716;9.272;2023-06-19T02:14:18;8.88;;;4.20;;
44766;SDS011;30487;48.716;9.272;2023-06-19T02:16:44;5.15;;;3.92;;
44766;SDS011;30487;48.716;9.272;2023-06-19T02:19:12;8.68;;;4.00;;
44766;SDS011;30487;48.716;9.272;2023-06-19T02:21:38;5.55;;;4.07;;
44766;SDS011;30487;48.716;9.272;2023-06-19T02:24:04;7.90;;;3.85;;
44766;SDS011;30487;48.716;9.272;2023-06-19T02:26:30;7.47;;;3.70;;
44766;SDS011;30487;48.716;9.272;2023-06-19T02:28:56;11.07;;;3.95;;
44766;SDS011;30487;48.716;9.272;2023-06-19T02:31:22;5.93;;;3.85;;
44766;SDS011;30487;48.716;9.272;2023-06-19T02:33:48;8.57;;;4.60;;
44766;SDS011;30487;48.716;9.272;2023-06-19T02:36:14;6.70;;;4.15;;
44766;SDS011;30487;48.716;9.272;2023-06-19T02:38:44;6.15;;;4.22;;
44766;SDS011;30487;48.716;9.272;2023-06-19T02:41:13;6.97;;;4.20;;
44766;SDS011;30487;48.716;9.272;2023-06-19T02:43:39;5.97;;;4.07;;
44766;SDS011;30487;48.716;9.272;2023-06-19T02:46:06;7.53;;;4.10;;
44766;SDS011;30487;48.716;9.272;2023-06-19T02:48:31;5.25;;;3.70;;
44766;SDS011;30487;48.716;9.272;2023-06-19T02:50:57;7.82;;;3.85;;
44766;SDS011;30487;48.716;9.272;2023-06-19T02:53:22;7.50;;;3.80;;
44766;SDS011;30487;48.716;9.272;2023-06-19T02:55:48;6.15;;;4.13;;
44766;SDS011;30487;48.716;9.272;2023-06-19T02:58:13;4.75;;;3.47;;
44766;SDS011;30487;48.716;9.272;2023-06-19T03:00:39;4.75;;;3.42;;
44766;SDS011;30487;48.716;9.272;2023-06-19T03:03:05;6.97;;;3.47;;
44766;SDS011;30487;48.716;9.272;2023-06-19T03:05:30;6.13;;;3.33;;
44766;SDS011;30487;48.716;9.272;2023-06-19T03:07:56;5.03;;;3.70;;
44766;SDS011;30487;48.716;9.272;2023-06-19T03:10:22;6.18;;;3.20;;
44766;SDS011;30487;48.716;9.272;2023-06-19T03:12:47;6.80;;;3.38;;
44766;SDS011;30487;48.716;9.272;2023-06-19T03:15:13;7.85;;;3.75;;
44766;SDS011;30487;48.716;9.272;2023-06-19T03:17:38;4.60;;;3.30;;
44766;SDS011;30487;48.716;9.272;2023-06-19T03:20:04;6.30;;;3.50;;
44766;SDS011;30487;48.716;9.272;2023-06-19T03:22:31;5.40;;;3.90;;
44766;SDS011;30487;48.716;9.272;2023-06-19T03:24:57;6.68;;;4.20;;
44766;SDS011;30487;48.716;9.272;2023-06-19T03:27:22;8.15;;;4.10;;
44766;SDS011;30487;48.716;9.272;2023-06-19T03:29:51;8.32;;;4.32;;
44766;SDS011;30487;48.716;9.272;2023-06-19T03:32:17;4.88;;;3.80;;
44766;SDS011;30487;48.716;9.272;2023-06-19T03:34:44;5.68;;;3.60;;
44766;SDS011;30487;48.716;9.272;2023-06-19T03:37:09;6.85;;;3.70;;
44766;SDS011;30487;48.716;9.272;2023-06-19T03:39:35;6.30;;;3.75;;
44766;SDS011;30487;48.716;9.272;2023-06-19T03:42:01;4.68;;;3.45;;
44766;SDS011;30487;48.716;9.272;2023-06-19T03:44:26;5.95;;;3.20;;
44766;SDS011;30487;48.716;9.272;2023-06-19T03:46:52;5.03;;;3.10;;
44766;SDS011;30487;48.716;9.272;2023-06-19T03:49:17;6.43;;;3.53;;
44766;SDS011;30487;48.716;9.272;2023-06-19T03:51:43;5.55;;;3.20;;
44766;SDS011;30487;48.716;9.272;2023-06-19T03:54:09;4.75;;;2.95;;
44766;SDS011;30487;48.716;9.272;2023-06-19T03:56:34;4.82;;;3.33;;
44766;SDS011;30487;48.716;9.272;2023-06-19T03:59:00;5.15;;;3.60;;
44766;SDS011;30487;48.716;9.272;2023-06-19T04:01:25;4.65;;;3.08;;
44766;SDS011;30487;48.716;9.272;2023-06-19T04:03:51;7.88;;;3.33;;
44766;SDS011;30487;48.716;9.272;2023-06-19T04:06:17;3.90;;;2.85;;
44766;SDS011;30487;48.716;9.272;2023-06-19T04:08:42;7.43;;;3.30;;
44766;SDS011;30487;48.716;9.272;2023-06-19T04:11:08;5.30;;;3.60;;
44766;SDS011;30487;48.716;9.272;2023-06-19T04:13:33;6.22;;;3.50;;
44766;SDS011;30487;48.716;9.272;2023-06-19T04:15:59;5.18;;;3.35;;
44766;SDS011;30487;48.716;9.272;2023-06-19T04:18:25;5.95;;;3.50;;
44766;SDS011;30487;48.716;9.272;2023-06-19T04:20:52;4.72;;;3.15;;
44766;SDS011;30487;48.716;9.272;2023-06-19T04:23:17;7.35;;;3.60;;
44766;SDS011;30487;48.716;9.272;2023-06-19T04:25:43;6.13;;;3.70;;
44766;SDS011;30487;48.716;9.272;2023-06-19T04:28:08;6.15;;;3.60;;
44766;SDS011;30487;48.716;9.272;2023-06-19T04:30:34;5.20;;;3.20;;
44766;SDS011;30487;48.716;9.272;2023-06-19T04:33:00;4.68;;;3.30;;
44766;SDS011;30487;48.716;9.272;2023-06-19T04:35:25;4.82;;;3.13;;
44766;SDS011;30487;48.716;9.272;2023-06-19T04:37:52;6.75;;;3.45;;
44766;SDS011;30487;48.716;9.272;2023-06-19T04:40:18;7.03;;;3.60;;
44766;SDS011;30487;48.716;9.272;2023-06-19T04:42:44;6.63;;;3.72;;
44766;SDS011;30487;48.716;9.272;2023-06-19T04:45:09;5.18;;;3.40;;
44766;SDS011;30487;48.716;9.272;2023-06-19T04:47:35;6.03;;;3.45;;
44766;SDS011;30487;48.716;9.272;2023-06-19T04:50:01;5.70;;;3.88;;
44766;SDS011;30487;48.716;9.272;2023-06-19T04:52:26;5.97;;;3.53;;
44766;SDS011;30487;48.716;9.272;2023-06-19T04:54:52;6.55;;;3.70;;
44766;SDS011;30487;48.716;9.272;2023-06-19T04:57:18;5.63;;;3.22;;
44766;SDS011;30487;48.716;9.272;2023-06-19T04:59:44;5.03;;;3.40;;
44766;SDS011;30487;48.716;9.272;2023-06-19T05:02:10;8.13;;;3.53;;
44766;SDS011;30487;48.716;9.272;2023-06-19T05:04:36;6.93;;;3.35;;
44766;SDS011;30487;48.716;9.272;2023-06-19T05:07:01;4.95;;;3.10;;
44766;SDS011;30487;48.716;9.272;2023-06-19T05:09:27;5.47;;;3.40;;
44766;SDS011;30487;48.716;9.272;2023-06-19T05:11:53;6.22;;;2.72;;
44766;SDS011;30487;48.716;9.272;2023-06-19T05:14:19;4.28;;;2.85;;
44766;SDS011;30487;48.716;9.272;2023-06-19T05:16:45;6.45;;;2.97;;
44766;SDS011;30487;48.716;9.272;2023-06-19T05:19:10;4.07;;;2.70;;
44766;SDS011;30487;48.716;9.272;2023-06-19T05:21:36;4.75;;;2.72;;
44766;SDS011;30487;48.716;9.272;2023-06-19T05:24:01;4.65;;;2.78;;
44766;SDS011;30487;48.716;9.272;2023-06-19T05:26:27;7.32;;;2.85;;
44766;SDS011;30487;48.716;9.272;2023-06-19T05:28:53;4.55;;;2.40;;
44766;SDS011;30487;48.716;9.272;2023-06-19T05:31:18;4.95;;;2.72;;
44766;SDS011;30487;48.716;9.272;2023-06-19T05:33:44;4.60;;;2.80;;
44766;SDS011;30487;48.716;9.272;2023-06-19T05:36:10;3.95;;;2.42;;
44766;SDS011;30487;48.716;9.272;2023-06-19T05:38:36;3.80;;;2.35;;
44766;SDS011;30487;48.716;9.272;2023-06-19T05:41:02;4.70;;;2.60;;
44766;SDS011;30487;48.716;9.272;2023-06-19T05:43:28;6.68;;;2.58;;
44766;SDS011;30487;48.716;9.272;2023-06-19T05:45:54;4.35;;;2.70;;
44766;SDS011;30487;48.716;9.272;2023-06-19T05:48:24;3.60;;;2.47;;
44766;SDS011;30487;48.716;9.272;2023-06-19T05:50:52;3.80;;;2.78;;
44766;SDS011;30487;48.716;9.272;2023-06-19T05:53:18;21.73;;;3.20;;
44766;SDS011;30487;48.716;9.272;2023-06-19T05:55:43;5.57;;;2.67;;
44766;SDS011;30487;48.716;9.272;2023-06-19T05:58:09;3.53;;;2.33;;
44766;SDS011;30487;48.716;9.272;2023-06-19T06:00:35;3.72;;;2.67;;
44766;SDS011;30487;48.716;9.272;2023-06-19T06:03:00;4.35;;;2.67;;
44766;SDS011;30487;48.716;9.272;2023-06-19T06:05:27;6.78;;;2.80;;
44766;SDS011;30487;48.716;9.272;2023-06-19T06:07:53;5.03;;;2.70;;
44766;SDS011;30487;48.716;9.272;2023-06-19T06:10:20;4.15;;;2.53;;
44766;SDS011;30487;48.716;9.272;2023-06-19T06:12:46;4.82;;;2.60;;
44766;SDS011;30487;48.716;9.272;2023-06-19T06:15:12;3.92;;;2.60;;
44766;SDS011;30487;48.716;9.272;2023-06-19T06:17:38;5.60;;;2.70;;
44766;SDS011;30487;48.716;9.272;2023-06-19T06:20:04;3.30;;;2.45;;
44766;SDS011;30487;48.716;9.272;2023-06-19T06:25:03;3.90;;;2.47;;
44766;SDS011;30487;48.716;9.272;2023-06-19T06:27:29;4.30;;;2.33;;
44766;SDS011;30487;48.716;9.272;2023-06-19T06:29:55;3.95;;;2.60;;
44766;SDS011;30487;48.716;9.272;2023-06-19T06:32:20;7.18;;;2.95;;
44766;SDS011;30487;48.716;9.272;2023-06-19T06:34:46;5.20;;;2.78;;
44766;SDS011;30487;48.716;9.272;2023-06-19T06:37:12;6.03;;;2.70;;
44766;SDS011;30487;48.716;9.272;2023-06-19T06:39:38;9.20;;;2.95;;
44766;SDS011;30487;48.716;9.272;2023-06-19T06:42:03;3.38;;;2.42;;
44766;SDS011;30487;48.716;9.272;2023-06-19T06:44:29;3.97;;;2.28;;
44766;SDS011;30487;48.716;9.272;2023-06-19T06:46:55;6.43;;;2.85;;
44766;SDS011;30487;48.716;9.272;2023-06-19T06:49:20;3.55;;;2.58;;
44766;SDS011;30487;48.716;9.272;2023-06-19T06:51:47;4.50;;;2.50;;
44766;SDS011;30487;48.716;9.272;2023-06-19T06:54:13;2.88;;;2.28;;
44766;SDS011;30487;48.716;9.272;2023-06-19T06:56:38;6.28;;;2.72;;
44766;SDS011;30487;48.716;9.272;2023-06-19T06:59:04;3.30;;;2.38;;
44766;SDS011;30487;48.716;9.272;2023-06-19T07:01:30;5.50;;;2.22;;
44766;SDS011;30487;48.716;9.272;2023-06-19T07:03:55;4.15;;;2.50;;
44766;SDS011;30487;48.716;9.272;2023-06-19T07:06:21;6.88;;;2.50;;
44766;SDS011;30487;48.716;9.272;2023-06-19T07:08:46;5.45;;;2.50;;
44766;SDS011;30487;48.716;9.272;2023-06-19T07:11:13;4.82;;;2.65;;
44766;SDS011;30487;48.716;9.272;2023-06-19T07:13:38;4.70;;;2.10;;
44766;SDS011;30487;48.716;9.272;2023-06-19T07:16:06;3.38;;;2.30;;
44766;SDS011;30487;48.716;9.272;2023-06-19T07:18:32;3.70;;;2.33;;
44766;SDS011;30487;48.716;9.272;2023-06-19T07:21:00;4.32;;;2.10;;
44766;SDS011;30487;48.716;9.272;2023-06-19T07:23:26;4.10;;;2.47;;
44766;SDS011;30487;48.716;9.272;2023-06-19T07:25:51;4.93;;;2.13;;
44766;SDS011;30487;48.716;9.272;2023-06-19T07:28:17;4.60;;;2.00;;
44766;SDS011;30487;48.716;9.272;2023-06-19T07:30:42;3.33;;;1.92;;
44766;SDS011;30487;48.716;9.272;2023-06-19T07:33:09;2.70;;;1.80;;
44766;SDS011;30487;48.716;9.272;2023-06-19T07:35:35;6.88;;;2.50;;
44766;SDS011;30487;48.716;9.272;2023-06-19T07:38:00;8.35;;;2.30;;
44766;SDS011;30487;48.716;9.272;2023-06-19T07:40:26;4.20;;;2.05;;
44766;SDS011;30487;48.716;9.272;2023-06-19T07:42:51;2.90;;;1.88;;
44766;SDS011;30487;48.716;9.272;2023-06-19T07:45:17;4.82;;;1.85;;
44766;SDS011;30487;48.716;9.272;2023-06-19T07:47:42;3.08;;;1.90;;
44766;SDS011;30487;48.716;9.272;2023-06-19T07:50:08;3.28;;;1.80;;
44766;SDS011;30487;48.716;9.272;2023-06-19T07:52:34;5.57;;;2.13;;
44766;SDS011;30487;48.716;9.272;2023-06-19T07:55:00;3.20;;;1.98;;
44766;SDS011;30487;48.716;9.272;2023-06-19T07:57:26;2.88;;;1.80;;
44766;SDS011;30487;48.716;9.272;2023-06-19T07:59:54;4.82;;;2.20;;
44766;SDS011;30487;48.716;9.272;2023-06-19T08:02:20;4.32;;;2.50;;
44766;SDS011;30487;48.716;9.272;2023-06-19T08:04:46;5.47;;;2.50;;
44766;SDS011;30487;48.716;9.272;2023-06-19T08:07:12;3.15;;;1.80;;
44766;SDS011;30487;48.716;9.272;2023-06-19T08:09:37;3.00;;;2.13;;
44766;SDS011;30487;48.716;9.272;2023-06-19T08:12:03;2.97;;;1.92;;
44766;SDS011;30487;48.716;9.272;2023-06-19T08:14:29;4.22;;;1.95;;
44766;SDS011;30487;48.716;9.272;2023-06-19T08:16:54;4.38;;;2.13;;
44766;SDS011;30487;48.716;9.272;2023-06-19T08:19:20;6.95;;;2.13;;
44766;SDS011;30487;48.716;9.272;2023-06-19T08:21:46;3.42;;;2.20;;
44766;SDS011;30487;48.716;9.272;2023-06-19T08:24:12;5.07;;;2.15;;
44766;SDS011;30487;48.716;9.272;2023-06-19T08:26:37;4.72;;;2.20;;
44766;SDS011;30487;48.716;9.272;2023-06-19T08:29:03;2.70;;;1.83;;
44766;SDS011;30487;48.716;9.272;2023-06-19T08:31:28;4.57;;;2.10;;
44766;SDS011;30487;48.716;9.272;2023-06-19T08:33:54;6.35;;;2.58;;
44766;SDS011;30487;48.716;9.272;2023-06-19T08:36:20;4.25;;;2.22;;
44766;SDS011;30487;48.716;9.272;2023-06-19T08:38:46;5.13;;;2.50;;
44766;SDS011;30487;48.716;9.272;2023-06-19T08:41:14;6.03;;;2.20;;
44766;SDS011;30487;48.716;9.272;2023-06-19T08:43:41;2.83;;;2.15;;
44766;SDS011;30487;48.716;9.272;2023-06-19T08:46:17;4.53;;;2.50;;
44766;SDS011;30487;48.716;9.272;2023-06-19T08:48:43;10.15;;;3.20;;
44766;SDS011;30487;48.716;9.272;2023-06-19T08:51:10;6.05;;;2.75;;
44766;SDS011;30487;48.716;9.272;2023-06-19T08:53:46;5.00;;;2.33;;
44766;SDS011;30487;48.716;9.272;2023-06-19T08:56:13;5.68;;;2.20;;
44766;SDS011;30487;48.716;9.272;2023-06-19T08:58:39;7.03;;;2.60;;
44766;SDS011;30487;48.716;9.272;2023-06-19T09:01:05;4.40;;;2.20;;
44766;SDS011;30487;48.716;9.272;2023-06-19T09:03:30;3.17;;;2.22;;
44766;SDS011;30487;48.716;9.272;2023-06-19T09:05:58;6.43;;;2.20;;
44766;SDS011;30487;48.716;9.272;2023-06-19T09:08:27;6.57;;;2.10;;
44766;SDS011;30487;48.716;9.272;2023-06-19T09:11:03;5.03;;;2.00;;
44766;SDS011;30487;48.716;9.272;2023-06-19T09:13:30;4.80;;;2.00;;
44766;SDS011;30487;48.716;9.272;2023-06-19T09:15:57;6.05;;;2.15;;
44766;SDS011;30487;48.716;9.272;2023-06-19T09:18:42;5.43;;;2.00;;
44766;SDS011;30487;48.716;9.272;2023-06-19T09:21:18;5.53;;;2.30;;
44766;SDS011;30487;48.716;9.272;2023-06-19T09:23:47;3.10;;;1.88;;
44766;SDS011;30487;48.716;9.272;2023-06-19T09:26:15;3.22;;;1.98;;
44766;SDS011;30487;48.716;9.272;2023-06-19T09:28:43;4.18;;;2.05;;
44766;SDS011;30487;48.716;9.272;2023-06-19T09:31:08;3.47;;;1.88;;
44766;SDS011;30487;48.716;9.272;2023-06-19T09:33:34;3.85;;;2.00;;
44766;SDS011;30487;48.716;9.272;2023-06-19T09:36:02;4.60;;;2.10;;
44766;SDS011;30487;48.716;9.272;2023-06-19T09:38:35;5.88;;;2.58;;
44766;SDS011;30487;48.716;9.272;2023-06-19T09:41:03;9.02;;;2.70;;
44766;SDS011;30487;48.716;9.272;2023-06-19T09:43:35;5.38;;;2.63;;
44766;SDS011;30487;48.716;9.272;2023-06-19T09:46:02;3.58;;;1.88;;
44766;SDS011;30487;48.716;9.272;2023-06-19T09:48:30;4.38;;;2.22;;
44766;SDS011;30487;48.716;9.272;2023-06-19T09:51:10;5.65;;;1.92;;
44766;SDS011;30487;48.716;9.272;2023-06-19T09:53:45;13.60;;;3.20;;
44766;SDS011;30487;48.716;9.272;2023-06-19T09:56:12;6.32;;;2.30;;
44766;SDS011;30487;48.716;9.272;2023-06-19T09:58:38;4.88;;;2.05;;
44766;SDS011;30487;48.716;9.272;2023-06-19T10:01:06;2.60;;;1.70;;
44766;SDS011;30487;48.716;9.272;2023-06-19T10:03:33;2.90;;;2.00;;
44766;SDS011;30487;48.716;9.272;2023-06-19T10:06:00;3.22;;;1.90;;
44766;SDS011;30487;48.716;9.272;2023-06-19T10:08:42;5.90;;;2.30;;
44766;SDS011;30487;48.716;9.272;2023-06-19T10:11:09;3.00;;;1.90;;
44766;SDS011;30487;48.716;9.272;2023-06-19T10:13:36;3.25;;;1.83;;
44766;SDS011;30487;48.716;9.272;2023-06-19T10:16:05;4.72;;;1.88;;
44766;SDS011;30487;48.716;9.272;2023-06-19T10:18:32;3.75;;;1.83;;
44766;SDS011;30487;48.716;9.272;2023-06-19T10:21:15;2.85;;;1.85;;
44766;SDS011;30487;48.716;9.272;2023-06-19T10:23:54;4.53;;;2.00;;
44766;SDS011;30487;48.716;9.272;2023-06-19T10:26:29;3.05;;;1.90;;
44766;SDS011;30487;48.716;9.272;2023-06-19T10:28:58;2.47;;;1.83;;
44766;SDS011;30487;48.716;9.272;2023-06-19T10:31:24;3.85;;;1.65;;
44766;SDS011;30487;48.716;9.272;2023-06-19T10:33:50;3.15;;;1.70;;
44766;SDS011;30487;48.716;9.272;2023-06-19T10:36:16;3.00;;;1.90;;
44766;SDS011;30487;48.716;9.272;2023-06-19T10:38:44;4.07;;;2.17;;
44766;SDS011;30487;48.716;9.272;2023-06-19T10:41:19;4.15;;;1.88;;
44766;SDS011;30487;48.716;9.272;2023-06-19T10:43:53;3.03;;;1.85;;
44766;SDS011;30487;48.716;9.272;2023-06-19T10:46:27;3.38;;;1.90;;
44766;SDS011;30487;48.716;9.272;2023-06-19T10:48:55;3.42;;;2.03;;
44766;SDS011;30487;48.716;9.272;2023-06-19T10:51:25;3.47;;;2.17;;
44766;SDS011;30487;48.716;9.272;2023-06-19T10:53:55;4.25;;;1.77;;
44766;SDS011;30487;48.716;9.272;2023-06-19T10:56:21;3.33;;;2.10;;
44766;SDS011;30487;48.716;9.272;2023-06-19T10:58:48;4.35;;;2.20;;
44766;SDS011;30487;48.716;9.272;2023-06-19T11:01:21;3.45;;;2.20;;
44766;SDS011;30487;48.716;9.272;2023-06-19T11:03:47;5.65;;;2.58;;
44766;SDS011;30487;48.716;9.272;2023-06-19T11:06:19;3.65;;;2.00;;
44766;SDS011;30487;48.716;9.272;2023-06-19T11:08:50;4.30;;;2.40;;
44766;SDS011;30487;48.716;9.272;2023-06-19T11:11:17;3.07;;;2.20;;
44766;SDS011;30487;48.716;9.272;2023-06-19T11:13:43;3.25;;;2.42;;
44766;SDS011;30487;48.716;9.272;2023-06-19T11:16:08;4.10;;;2.60;;
44766;SDS011;30487;48.716;9.272;2023-06-19T11:18:34;4.72;;;2.30;;
44766;SDS011;30487;48.716;9.272;2023-06-19T11:21:01;3.67;;;2.75;;
44766;SDS011;30487;48.716;9.272;2023-06-19T11:23:28;3.42;;;2.38;;
44766;SDS011;30487;48.716;9.272;2023-06-19T11:26:01;4.70;;;2.13;;
44766;SDS011;30487;48.716;9.272;2023-06-19T11:28:30;3.42;;;2.40;;
44766;SDS011;30487;48.716;9.272;2023-06-19T11:31:00;4.13;;;2.38;;
44766;SDS011;30487;48.716;9.272;2023-06-19T11:33:27;3.75;;;2.38;;
44766;SDS011;30487;48.716;9.272;2023-06-19T11:35:54;7.10;;;2.38;;
44766;SDS011;30487;48.716;9.272;2023-06-19T11:38:26;4.88;;;2.30;;
44766;SDS011;30487;48.716;9.272;2023-06-19T11:40:55;4.32;;;2.35;;
44766;SDS011;30487;48.716;9.272;2023-06-19T11:43:28;6.80;;;2.53;;
44766;SDS011;30487;48.716;9.272;2023-06-19T11:48:27;4.07;;;2.85;;
44766;SDS011;30487;48.716;9.272;2023-06-19T11:50:53;3.65;;;2.60;;
44766;SDS011;30487;48.716;9.272;2023-06-19T11:53:23;3.55;;;2.40;;
44766;SDS011;30487;48.716;9.272;2023-06-19T11:55:50;4.60;;;2.25;;
44766;SDS011;30487;48.716;9.272;2023-06-19T11:58:16;6.07;;;2.50;;
44766;SDS011;30487;48.716;9.272;2023-06-19T12:00:44;4.68;;;2.30;;
44766;SDS011;30487;48.716;9.272;2023-06-19T12:03:10;3.83;;;2.60;;
44766;SDS011;30487;48.716;9.272;2023-06-19T12:05:36;3.78;;;2.45;;
44766;SDS011;30487;48.716;9.272;2023-06-19T12:08:02;5.05;;;2.05;;
44766;SDS011;30487;48.716;9.272;2023-06-19T12:10:29;6.63;;;2.50;;
44766;SDS011;30487;48.716;9.272;2023-06-19T12:12:58;3.15;;;2.00;;
44766;SDS011;30487;48.716;9.272;2023-06-19T12:15:24;3.42;;;2.33;;
44766;SDS011;30487;48.716;9.272;2023-06-19T12:17:50;4.35;;;2.30;;
44766;SDS011;30487;48.716;9.272;2023-06-19T12:20:16;6.38;;;2.17;;
44766;SDS011;30487;48.716;9.272;2023-06-19T12:22:42;4.32;;;2.30;;
44766;SDS011;30487;48.716;9.272;2023-06-19T12:25:08;4.80;;;2.15;;
44766;SDS011;30487;48.716;9.272;2023-06-19T12:27:34;3.80;;;2.22;;
44766;SDS011;30487;48.716;9.272;2023-06-19T12:29:59;8.90;;;3.05;;
44766;SDS011;30487;48.716;9.272;2023-06-19T12:32:25;10.70;;;3.78;;
44766;SDS011;30487;48.716;9.272;2023-06-19T12:34:51;25.27;;;4.25;;
44766;SDS011;30487;48.716;9.272;2023-06-19T12:37:19;11.98;;;2.85;;
44766;SDS011;30487;48.716;9.272;2023-06-19T12:39:46;8.18;;;3.35;;
44766;SDS011;30487;48.716;9.272;2023-06-19T12:42:12;6.28;;;2.53;;
44766;SDS011;30487;48.716;9.272;2023-06-19T12:44:38;4.28;;;2.65;;
44766;SDS011;30487;48.716;9.272;2023-06-19T12:47:06;8.05;;;2.30;;
44766;SDS011;30487;48.716;9.272;2023-06-19T12:49:32;4.85;;;2.95;;
44766;SDS011;30487;48.716;9.272;2023-06-19T12:51:58;6.72;;;2.83;;
44766;SDS011;30487;48.716;9.272;2023-06-19T12:54:24;4.97;;;2.67;;
44766;SDS011;30487;48.716;9.272;2023-06-19T12:56:50;6.50;;;2.65;;
44766;SDS011;30487;48.716;9.272;2023-06-19T12:59:16;3.97;;;2.60;;
44766;SDS011;30487;48.716;9.272;2023-06-19T13:01:43;8.20;;;2.70;;
44766;SDS011;30487;48.716;9.272;2023-06-19T13:04:09;3.45;;;2.45;;
44766;SDS011;30487;48.716;9.272;2023-06-19T13:06:36;4.35;;;2.63;;
44766;SDS011;30487;48.716;9.272;2023-06-19T13:09:02;3.83;;;2.35;;
44766;SDS011;30487;48.716;9.272;2023-06-19T13:11:29;5.32;;;2.55;;
44766;SDS011;30487;48.716;9.272;2023-06-19T13:13:55;4.35;;;2.50;;
44766;SDS011;30487;48.716;9.272;2023-06-19T13:16:21;3.75;;;2.47;;
44766;SDS011;30487;48.716;9.272;2023-06-19T13:18:49;4.10;;;2.63;;
44766;SDS011;30487;48.716;9.272;2023-06-19T13:21:14;4.38;;;2.72;;
44766;SDS011;30487;48.716;9.272;2023-06-19T13:23:40;4.43;;;2.50;;
44766;SDS011;30487;48.716;9.272;2023-06-19T13:26:06;4.45;;;2.50;;
44766;SDS011;30487;48.716;9.272;2023-06-19T13:28:32;4.75;;;2.40;;
44766;SDS011;30487;48.716;9.272;2023-06-19T13:30:57;5.35;;;2.47;;
44766;SDS011;30487;48.716;9.272;2023-06-19T13:33:23;3.25;;;2.40;;
44766;SDS011;30487;48.716;9.272;2023-06-19T13:35:50;5.28;;;2.30;;
44766;SDS011;30487;48.716;9.272;2023-06-19T13:38:15;3.88;;;2.28;;
44766;SDS011;30487;48.716;9.272;2023-06-19T13:40:42;3.55;;;2.40;;
44766;SDS011;30487;48.716;9.272;2023-06-19T13:43:08;4.28;;;2.20;;
44766;SDS011;30487;48.716;9.272;2023-06-19T13:45:33;4.53;;;2.20;;
44766;SDS011;30487;48.716;9.272;2023-06-19T13:48:00;3.20;;;2.17;;
44766;SDS011;30487;48.716;9.272;2023-06-19T13:50:26;3.75;;;2.15;;
44766;SDS011;30487;48.716;9.272;2023-06-19T13:52:52;2.58;;;2.10;;
44766;SDS011;30487;48.716;9.272;2023-06-19T13:55:18;3.20;;;2.30;;
44766;SDS011;30487;48.716;9.272;2023-06-19T13:57:44;3.60;;;2.20;;
44766;SDS011;30487;48.716;9.272;2023-06-19T14:00:10;7.80;;;2.40;;
44766;SDS011;30487;48.716;9.272;2023-06-19T14:02:37;3.70;;;2.58;;
44766;SDS011;30487;48.716;9.272;2023-06-19T14:05:06;3.85;;;2.25;;
44766;SDS011;30487;48.716;9.272;2023-06-19T14:07:33;3.53;;;2.20;;
44766;SDS011;30487;48.716;9.272;2023-06-19T14:10:00;3.30;;;2.40;;
44766;SDS011;30487;48.716;9.272;2023-06-19T14:12:26;3.35;;;2.15;;
44766;SDS011;30487;48.716;9.272;2023-06-19T14:14:52;3.38;;;2.25;;
44766;SDS011;30487;48.716;9.272;2023-06-19T14:17:17;3.75;;;2.10;;
44766;SDS011;30487;48.716;9.272;2023-06-19T14:19:43;2.92;;;2.15;;
44766;SDS011;30487;48.716;9.272;2023-06-19T14:22:08;4.47;;;2.35;;
44766;SDS011;30487;48.716;9.272;2023-06-19T14:24:34;3.38;;;2.28;;
44766;SDS011;30487;48.716;9.272;2023-06-19T14:26:59;3.45;;;2.42;;
44766;SDS011;30487;48.716;9.272;2023-06-19T14:29:25;4.47;;;2.63;;
44766;SDS011;30487;48.716;9.272;2023-06-19T14:31:51;3.78;;;2.30;;
44766;SDS011;30487;48.716;9.272;2023-06-19T14:34:17;3.00;;;2.30;;
44766;SDS011;30487;48.716;9.272;2023-06-19T14:36:43;4.30;;;2.50;;
44766;SDS011;30487;48.716;9.272;2023-06-19T14:39:09;3.83;;;2.42;;
44766;SDS011;30487;48.716;9.272;2023-06-19T14:41:36;3.40;;;2.30;;
44766;SDS011;30487;48.716;9.272;2023-06-19T14:44:02;3.88;;;2.42;;
44766;SDS011;30487;48.716;9.272;2023-06-19T14:46:29;3.05;;;2.30;;
44766;SDS011;30487;48.716;9.272;2023-06-19T14:48:56;3.85;;;2.42;;
44766;SDS011;30487;48.716;9.272;2023-06-19T14:51:23;3.90;;;2.40;;